createdAt,value
2023-05-01T00:00:24.994Z,84.19
2023-05-01T00:00:57.667Z,84.19
2023-05-01T00:01:30.349Z,84.29
2023-05-01T00:02:02.988Z,84.39
2023-05-01T00:02:35.723Z,84.39
2023-05-01T00:03:08.496Z,84.39
2023-05-01T00:03:41.321Z,84.29
2023-05-01T00:04:14.210Z,84.29
2023-05-01T00:04:47.087Z,84.29
2023-05-01T00:05:19.811Z,84.39
2023-05-01T00:05:52.507Z,84.29
2023-05-01T00:06:25.204Z,84.29
2023-05-01T00:06:57.856Z,84.29
2023-05-01T00:07:30.538Z,84.29
2023-05-01T00:08:03.193Z,84.29
2023-05-01T00:08:35.882Z,84.19
2023-05-01T00:09:08.540Z,84.19
2023-05-01T00:09:41.210Z,84.19
2023-05-01T00:10:13.891Z,84.29
2023-05-01T00:10:46.575Z,84.50
2023-05-01T00:11:17.676Z,84.60
2023-05-01T00:11:50.320Z,84.81
2023-05-01T00:12:22.987Z,84.91
2023-05-01T00:12:55.654Z,85.02
2023-05-01T00:13:28.317Z,85.12
2023-05-01T00:14:00.996Z,85.22
2023-05-01T00:14:33.644Z,85.22
2023-05-01T00:15:06.332Z,85.12
2023-05-01T00:15:38.997Z,85.02
2023-05-01T00:16:11.730Z,84.81
2023-05-01T00:16:44.528Z,84.74
2023-05-01T00:17:17.209Z,84.64
2023-05-01T00:17:49.901Z,84.64
2023-05-01T00:18:22.568Z,84.74
2023-05-01T00:18:55.372Z,84.84
2023-05-01T00:19:28.042Z,84.84
2023-05-01T00:20:00.706Z,84.95
2023-05-01T00:20:33.377Z,85.05
2023-05-01T00:21:06.071Z,85.26
2023-05-01T00:21:38.730Z,85.47
2023-05-01T00:22:11.422Z,85.68
2023-05-01T00:22:44.098Z,85.88
2023-05-01T00:23:16.750Z,85.93
2023-05-01T00:23:49.423Z,86.03
2023-05-01T00:24:22.110Z,85.99
2023-05-01T00:24:54.762Z,86.09
2023-05-01T00:25:27.426Z,86.13
2023-05-01T00:26:00.159Z,85.99
2023-05-01T00:26:32.810Z,85.82
2023-05-01T00:27:05.467Z,85.72
2023-05-01T00:27:38.153Z,85.72
2023-05-01T00:28:10.840Z,85.68
2023-05-01T00:28:43.485Z,85.51
2023-05-01T00:29:16.154Z,85.41
2023-05-01T00:29:48.809Z,85.41
2023-05-01T00:30:21.485Z,85.41
2023-05-01T00:30:54.188Z,85.61
2023-05-01T00:31:26.877Z,85.61
2023-05-01T00:31:59.560Z,85.51
2023-05-01T00:32:32.224Z,85.51
2023-05-01T00:33:04.906Z,85.72
2023-05-01T00:33:37.582Z,85.93
2023-05-01T00:34:08.724Z,86.03
2023-05-01T00:34:41.385Z,86.24
2023-05-01T00:35:14.044Z,86.44
2023-05-01T00:35:46.751Z,86.44
2023-05-01T00:36:19.428Z,86.44
2023-05-01T00:36:52.091Z,86.44
2023-05-01T00:37:24.784Z,86.44
2023-05-01T00:37:57.438Z,86.55
2023-05-01T00:38:30.141Z,86.44
2023-05-01T00:39:02.782Z,86.44
2023-05-01T00:39:35.457Z,86.44
2023-05-01T00:40:08.128Z,86.44
2023-05-01T00:40:40.813Z,86.44
2023-05-01T00:41:13.494Z,86.24
2023-05-01T00:41:46.179Z,86.13
2023-05-01T00:42:18.827Z,86.03
2023-05-01T00:42:51.496Z,85.93
2023-05-01T00:43:24.235Z,85.93
2023-05-01T00:43:56.895Z,85.93
2023-05-01T00:44:29.571Z,86.03
2023-05-01T00:45:02.258Z,86.24
2023-05-01T00:45:34.952Z,86.34
2023-05-01T00:46:07.657Z,86.55
2023-05-01T00:46:40.360Z,86.55
2023-05-01T00:47:13.021Z,86.34
2023-05-01T00:47:45.753Z,86.24
2023-05-01T00:48:18.404Z,86.34
2023-05-01T00:48:51.045Z,86.24
2023-05-01T00:49:23.718Z,86.13
2023-05-01T00:49:56.629Z,86.24
2023-05-01T00:50:23.015Z,86.34
2023-05-01T00:50:55.686Z,86.49
2023-05-01T00:51:28.382Z,86.49
2023-05-01T00:52:01.021Z,86.59
2023-05-01T00:52:33.708Z,86.59
2023-05-01T00:53:06.398Z,86.49
2023-05-01T00:53:39.069Z,86.38
2023-05-01T00:54:11.744Z,86.38
2023-05-01T00:54:44.431Z,86.49
2023-05-01T00:55:17.086Z,86.49
2023-05-01T00:55:49.758Z,86.49
2023-05-01T00:56:22.439Z,86.49
2023-05-01T00:56:55.241Z,86.49
2023-05-01T00:57:27.906Z,86.59
2023-05-01T00:58:00.541Z,86.59
2023-05-01T00:58:33.194Z,86.59
2023-05-01T00:59:05.861Z,86.69
2023-05-01T00:59:38.559Z,86.80
2023-05-01T01:00:11.189Z,86.80
2023-05-01T01:00:43.940Z,86.80
2023-05-01T01:01:16.670Z,86.90
2023-05-01T01:01:49.356Z,86.90
2023-05-01T01:02:22.104Z,86.90
2023-05-01T01:02:54.788Z,86.90
2023-05-01T01:03:27.450Z,86.90
2023-05-01T01:04:00.175Z,87.01
2023-05-01T01:04:32.965Z,87.01
2023-05-01T01:05:05.616Z,87.11
2023-05-01T01:05:38.291Z,87.21
2023-05-01T01:06:11.038Z,87.21
2023-05-01T01:06:43.906Z,87.11
2023-05-01T01:07:10.195Z,87.11
2023-05-01T01:07:42.861Z,87.21
2023-05-01T01:08:15.533Z,87.21
2023-05-01T01:08:48.221Z,87.32
2023-05-01T01:09:20.867Z,87.42
2023-05-01T01:09:53.823Z,87.42
2023-05-01T01:10:20.168Z,87.42
2023-05-01T01:10:52.870Z,87.42
2023-05-01T01:11:25.501Z,87.42
2023-05-01T01:11:58.200Z,87.42
2023-05-01T01:12:30.847Z,87.52
2023-05-01T01:13:03.510Z,87.42
2023-05-01T01:13:36.180Z,87.32
2023-05-01T01:14:08.855Z,87.21
2023-05-01T01:14:41.531Z,87.21
2023-05-01T01:15:14.216Z,87.21
2023-05-01T01:15:46.938Z,87.11
2023-05-01T01:16:19.583Z,87.01
2023-05-01T01:16:52.272Z,86.90
2023-05-01T01:17:24.954Z,86.80
2023-05-01T01:17:57.672Z,86.80
2023-05-01T01:18:30.344Z,86.80
2023-05-01T01:19:03.034Z,86.69
2023-05-01T01:19:35.682Z,86.69
2023-05-01T01:20:08.357Z,86.59
2023-05-01T01:20:41.035Z,86.59
2023-05-01T01:21:13.703Z,86.59
2023-05-01T01:21:46.365Z,86.59
2023-05-01T01:22:19.063Z,86.49
2023-05-01T01:22:51.709Z,86.49
2023-05-01T01:23:24.380Z,86.59
2023-05-01T01:23:57.043Z,86.59
2023-05-01T01:24:29.704Z,86.59
2023-05-01T01:25:02.365Z,86.69
2023-05-01T01:25:35.049Z,86.80
2023-05-01T01:26:07.717Z,86.80
2023-05-01T01:26:40.388Z,86.80
2023-05-01T01:27:13.103Z,86.69
2023-05-01T01:27:45.742Z,86.69
2023-05-01T01:28:18.412Z,86.80
2023-05-01T01:28:51.091Z,87.01
2023-05-01T01:29:23.746Z,87.11
2023-05-01T01:29:56.796Z,87.01
2023-05-01T01:30:23.191Z,87.01
2023-05-01T01:30:55.936Z,87.01
2023-05-01T01:31:28.637Z,87.11
2023-05-01T01:32:01.296Z,87.21
2023-05-01T01:32:33.952Z,87.21
2023-05-01T01:33:06.669Z,87.21
2023-05-01T01:33:39.352Z,87.21
2023-05-01T01:34:12.007Z,87.21
2023-05-01T01:34:44.668Z,87.11
2023-05-01T01:35:17.355Z,87.01
2023-05-01T01:35:50.057Z,86.94
2023-05-01T01:36:22.772Z,86.94
2023-05-01T01:36:55.418Z,87.04
2023-05-01T01:37:28.097Z,87.04
2023-05-01T01:38:00.754Z,87.04
2023-05-01T01:38:33.428Z,86.94
2023-05-01T01:39:06.102Z,86.73
2023-05-01T01:39:38.782Z,86.73
2023-05-01T01:40:11.443Z,86.83
2023-05-01T01:40:44.122Z,87.15
2023-05-01T01:41:16.793Z,87.25
2023-05-01T01:41:49.457Z,87.35
2023-05-01T01:42:22.161Z,87.35
2023-05-01T01:42:54.832Z,87.46
2023-05-01T01:43:27.469Z,87.66
2023-05-01T01:44:00.146Z,87.66
2023-05-01T01:44:32.793Z,87.71
2023-05-01T01:45:05.466Z,87.71
2023-05-01T01:45:38.123Z,87.71
2023-05-01T01:46:10.930Z,87.81
2023-05-01T01:46:43.781Z,87.92
2023-05-01T01:47:16.506Z,87.92
2023-05-01T01:47:49.217Z,87.92
2023-05-01T01:48:21.874Z,87.92
2023-05-01T01:48:54.546Z,87.92
2023-05-01T01:49:27.266Z,87.92
2023-05-01T01:49:59.907Z,88.02
2023-05-01T01:50:32.573Z,88.02
2023-05-01T01:51:05.268Z,87.92
2023-05-01T01:51:37.936Z,87.92
2023-05-01T01:52:10.605Z,87.81
2023-05-01T01:52:43.294Z,87.81
2023-05-01T01:53:15.945Z,87.81
2023-05-01T01:53:48.629Z,87.81
2023-05-01T01:54:21.289Z,87.81
2023-05-01T01:54:53.969Z,87.85
2023-05-01T01:55:26.618Z,87.81
2023-05-01T01:56:00.261Z,87.85
2023-05-01T01:56:27.464Z,87.85
2023-05-01T01:57:00.129Z,87.75
2023-05-01T01:57:32.818Z,87.75
2023-05-01T01:58:05.458Z,87.75
2023-05-01T01:58:38.119Z,87.85
2023-05-01T01:59:10.809Z,87.96
2023-05-01T01:59:43.462Z,88.06
2023-05-01T02:00:16.128Z,88.27
2023-05-01T02:00:48.798Z,88.37
2023-05-01T02:01:21.515Z,88.37
2023-05-01T02:01:54.280Z,88.27
2023-05-01T02:02:27.176Z,88.17
2023-05-01T02:02:59.959Z,88.17
2023-05-01T02:03:32.799Z,88.17
2023-05-01T02:04:05.598Z,88.27
2023-05-01T02:04:38.275Z,88.27
2023-05-01T02:05:10.928Z,88.17
2023-05-01T02:05:43.646Z,88.17
2023-05-01T02:06:16.305Z,88.17
2023-05-01T02:06:49.036Z,88.06
2023-05-01T02:07:21.762Z,88.17
2023-05-01T02:07:54.413Z,88.12
2023-05-01T02:08:27.096Z,88.12
2023-05-01T02:08:59.784Z,88.12
2023-05-01T02:09:32.429Z,88.23
2023-05-01T02:10:05.109Z,88.23
2023-05-01T02:10:37.769Z,88.02
2023-05-01T02:11:10.452Z,87.92
2023-05-01T02:11:43.129Z,87.75
2023-05-01T02:12:15.844Z,87.65
2023-05-01T02:12:48.512Z,87.75
2023-05-01T02:13:21.150Z,87.96
2023-05-01T02:13:53.821Z,88.06
2023-05-01T02:14:26.509Z,88.17
2023-05-01T02:14:59.159Z,88.27
2023-05-01T02:15:31.859Z,88.37
2023-05-01T02:16:04.591Z,88.37
2023-05-01T02:16:37.438Z,88.37
2023-05-01T02:17:10.115Z,88.37
2023-05-01T02:17:42.814Z,88.37
2023-05-01T02:18:15.485Z,88.37
2023-05-01T02:18:48.172Z,88.17
2023-05-01T02:19:20.850Z,88.06
2023-05-01T02:19:53.674Z,88.17
2023-05-01T02:20:26.480Z,88.17
2023-05-01T02:20:59.164Z,88.27
2023-05-01T02:21:31.829Z,88.17
2023-05-01T02:22:04.513Z,88.17
2023-05-01T02:22:37.188Z,88.06
2023-05-01T02:23:09.859Z,88.06
2023-05-01T02:23:42.531Z,87.96
2023-05-01T02:24:15.190Z,87.96
2023-05-01T02:24:47.854Z,87.96
2023-05-01T02:25:20.523Z,87.85
2023-05-01T02:25:53.244Z,87.96
2023-05-01T02:26:24.304Z,87.85
2023-05-01T02:26:57.120Z,87.75
2023-05-01T02:27:29.764Z,87.75
2023-05-01T02:28:02.439Z,87.85
2023-05-01T02:28:35.096Z,87.85
2023-05-01T02:29:07.776Z,87.96
2023-05-01T02:29:40.412Z,87.96
2023-05-01T02:30:13.079Z,87.85
2023-05-01T02:30:45.762Z,87.85
2023-05-01T02:31:18.482Z,87.75
2023-05-01T02:31:45.020Z,87.75
2023-05-01T02:32:17.737Z,87.65
2023-05-01T02:32:50.463Z,87.85
2023-05-01T02:33:23.141Z,87.85
2023-05-01T02:33:55.805Z,87.96
2023-05-01T02:34:28.481Z,88.06
2023-05-01T02:35:01.146Z,88.17
2023-05-01T02:35:33.800Z,88.48
2023-05-01T02:36:06.477Z,88.68
2023-05-01T02:36:39.138Z,89.00
2023-05-01T02:37:11.803Z,89.31
2023-05-01T02:37:44.474Z,89.87
2023-05-01T02:38:17.147Z,90.08
2023-05-01T02:38:49.802Z,90.08
2023-05-01T02:39:22.486Z,90.19
2023-05-01T02:39:55.354Z,90.08
2023-05-01T02:40:21.686Z,90.08
2023-05-01T02:40:54.364Z,89.98
2023-05-01T02:41:27.030Z,89.87
2023-05-01T02:41:59.704Z,89.87
2023-05-01T02:42:32.366Z,89.56
2023-05-01T02:43:05.080Z,89.45
2023-05-01T02:43:37.724Z,89.56
2023-05-01T02:44:10.392Z,89.56
2023-05-01T02:44:43.071Z,89.56
2023-05-01T02:45:15.733Z,89.45
2023-05-01T02:45:48.520Z,89.35
2023-05-01T02:46:21.334Z,89.25
2023-05-01T02:46:54.178Z,89.04
2023-05-01T02:47:26.963Z,89.04
2023-05-01T02:47:59.708Z,89.14
2023-05-01T02:48:32.490Z,89.14
2023-05-01T02:49:05.178Z,89.14
2023-05-01T02:49:37.832Z,89.14
2023-05-01T02:50:10.501Z,89.04
2023-05-01T02:50:43.189Z,89.04
2023-05-01T02:51:15.853Z,89.14
2023-05-01T02:51:48.514Z,89.14
2023-05-01T02:52:21.183Z,89.04
2023-05-01T02:52:53.845Z,89.04
2023-05-01T02:53:26.529Z,89.04
2023-05-01T02:53:59.216Z,89.14
2023-05-01T02:54:31.887Z,89.14
2023-05-01T02:55:04.555Z,89.04
2023-05-01T02:55:37.238Z,88.93
2023-05-01T02:56:09.908Z,88.83
2023-05-01T02:56:42.625Z,88.83
2023-05-01T02:57:15.297Z,88.83
2023-05-01T02:57:47.961Z,88.73
2023-05-01T02:58:20.654Z,88.73
2023-05-01T02:58:53.303Z,88.93
2023-05-01T02:59:25.967Z,88.93
2023-05-01T02:59:58.673Z,89.04
2023-05-01T03:00:31.307Z,89.04
2023-05-01T03:01:04.026Z,89.04
2023-05-01T03:01:36.752Z,89.14
2023-05-01T03:02:09.446Z,89.14
2023-05-01T03:02:42.159Z,89.14
2023-05-01T03:03:14.933Z,89.04
2023-05-01T03:03:47.613Z,89.04
2023-05-01T03:04:20.268Z,89.04
2023-05-01T03:04:52.975Z,89.04
2023-05-01T03:05:25.694Z,88.93
2023-05-01T03:05:58.413Z,89.04
2023-05-01T03:06:31.176Z,89.25
2023-05-01T03:07:03.904Z,89.50
2023-05-01T03:07:36.565Z,89.56
2023-05-01T03:08:09.234Z,89.81
2023-05-01T03:08:41.903Z,89.81
2023-05-01T03:09:14.568Z,89.81
2023-05-01T03:09:47.231Z,89.81
2023-05-01T03:10:19.953Z,89.91
2023-05-01T03:10:52.616Z,90.01
2023-05-01T03:11:25.268Z,90.12
2023-05-01T03:11:58.051Z,90.33
2023-05-01T03:12:30.680Z,90.33
2023-05-01T03:13:03.360Z,90.44
2023-05-01T03:13:36.054Z,90.44
2023-05-01T03:14:08.695Z,90.54
2023-05-01T03:14:41.360Z,90.54
2023-05-01T03:15:14.014Z,90.54
2023-05-01T03:15:46.695Z,90.44
2023-05-01T03:16:19.433Z,90.44
2023-05-01T03:16:52.179Z,90.33
2023-05-01T03:17:24.907Z,90.33
2023-05-01T03:17:57.647Z,90.44
2023-05-01T03:18:30.314Z,90.33
2023-05-01T03:19:02.984Z,90.33
2023-05-01T03:19:35.646Z,90.44
2023-05-01T03:20:08.327Z,90.54
2023-05-01T03:20:41.054Z,90.64
2023-05-01T03:21:13.687Z,90.54
2023-05-01T03:21:46.367Z,90.44
2023-05-01T03:22:19.036Z,90.44
2023-05-01T03:22:51.710Z,90.33
2023-05-01T03:23:24.482Z,90.22
2023-05-01T03:23:57.152Z,90.22
2023-05-01T03:24:29.810Z,90.22
2023-05-01T03:25:02.476Z,90.33
2023-05-01T03:25:35.134Z,90.33
2023-05-01T03:26:07.828Z,90.33
2023-05-01T03:26:40.506Z,90.54
2023-05-01T03:27:13.195Z,90.64
2023-05-01T03:27:45.839Z,90.75
2023-05-01T03:28:18.512Z,90.85
2023-05-01T03:28:51.199Z,90.85
2023-05-01T03:29:23.838Z,90.85
2023-05-01T03:29:56.730Z,90.85
2023-05-01T03:30:23.058Z,90.85
2023-05-01T03:30:55.721Z,90.85
2023-05-01T03:31:28.433Z,90.75
2023-05-01T03:32:01.096Z,90.75
2023-05-01T03:32:33.803Z,90.85
2023-05-01T03:33:06.492Z,90.95
2023-05-01T03:33:39.163Z,90.95
2023-05-01T03:34:11.810Z,90.95
2023-05-01T03:34:44.491Z,90.85
2023-05-01T03:35:17.189Z,90.85
2023-05-01T03:35:49.883Z,90.85
2023-05-01T03:36:22.558Z,90.85
2023-05-01T03:36:55.244Z,90.85
2023-05-01T03:37:27.910Z,90.75
2023-05-01T03:38:00.560Z,90.75
2023-05-01T03:38:33.240Z,90.75
2023-05-01T03:39:05.912Z,90.75
2023-05-01T03:39:38.580Z,90.75
2023-05-01T03:40:11.247Z,90.75
2023-05-01T03:40:43.947Z,90.64
2023-05-01T03:41:16.638Z,90.44
2023-05-01T03:41:49.311Z,90.33
2023-05-01T03:42:21.958Z,90.22
2023-05-01T03:42:54.615Z,90.22
2023-05-01T03:43:27.283Z,90.22
2023-05-01T03:43:59.971Z,90.22
2023-05-01T03:44:32.628Z,90.22
2023-05-01T03:45:05.306Z,90.12
2023-05-01T03:45:37.999Z,90.12
2023-05-01T03:46:10.664Z,89.91
2023-05-01T03:46:43.361Z,89.60
2023-05-01T03:47:16.010Z,89.70
2023-05-01T03:47:48.721Z,89.70
2023-05-01T03:48:21.423Z,89.91
2023-05-01T03:48:54.072Z,89.91
2023-05-01T03:49:26.732Z,89.91
2023-05-01T03:49:59.474Z,90.12
2023-05-01T03:50:32.136Z,90.22
2023-05-01T03:51:03.250Z,90.33
2023-05-01T03:51:35.911Z,90.44
2023-05-01T03:52:08.564Z,90.44
2023-05-01T03:52:41.240Z,90.33
2023-05-01T03:53:13.896Z,90.22
2023-05-01T03:53:46.565Z,90.19
2023-05-01T03:54:19.254Z,90.08
2023-05-01T03:54:51.936Z,90.29
2023-05-01T03:55:24.583Z,90.39
2023-05-01T03:55:57.275Z,90.50
2023-05-01T03:56:29.944Z,90.50
2023-05-01T03:57:02.682Z,90.50
2023-05-01T03:57:35.332Z,90.39
2023-05-01T03:58:08.005Z,90.39
2023-05-01T03:58:40.678Z,90.29
2023-05-01T03:59:13.407Z,90.29
2023-05-01T03:59:46.034Z,90.29
2023-05-01T04:00:18.708Z,90.29
2023-05-01T04:00:51.408Z,90.29
2023-05-01T04:01:24.099Z,90.29
2023-05-01T04:01:56.762Z,90.29
2023-05-01T04:02:29.508Z,90.19
2023-05-01T04:03:02.680Z,90.19
2023-05-01T04:03:33.354Z,89.98
2023-05-01T04:04:06.170Z,89.87
2023-05-01T04:04:39.000Z,89.87
2023-05-01T04:05:11.671Z,90.08
2023-05-01T04:05:44.344Z,90.19
2023-05-01T04:06:17.179Z,90.19
2023-05-01T04:06:50.037Z,90.19
2023-05-01T04:07:22.701Z,90.08
2023-05-01T04:07:55.366Z,90.08
2023-05-01T04:08:28.041Z,89.98
2023-05-01T04:09:00.695Z,89.98
2023-05-01T04:09:33.376Z,89.98
2023-05-01T04:10:06.030Z,90.08
2023-05-01T04:10:38.706Z,90.29
2023-05-01T04:11:11.365Z,90.39
2023-05-01T04:11:44.033Z,90.39
2023-05-01T04:12:16.700Z,90.50
2023-05-01T04:12:49.371Z,90.60
2023-05-01T04:13:22.029Z,90.50
2023-05-01T04:13:54.699Z,90.70
2023-05-01T04:14:27.399Z,90.81
2023-05-01T04:15:00.035Z,90.81
2023-05-01T04:15:32.722Z,90.91
2023-05-01T04:16:05.437Z,90.91
2023-05-01T04:16:38.140Z,91.02
2023-05-01T04:17:10.800Z,91.12
2023-05-01T04:17:43.525Z,91.33
2023-05-01T04:18:16.259Z,91.33
2023-05-01T04:18:48.949Z,91.18
2023-05-01T04:19:21.604Z,90.97
2023-05-01T04:19:54.724Z,90.87
2023-05-01T04:20:21.102Z,90.87
2023-05-01T04:20:53.770Z,90.87
2023-05-01T04:21:26.440Z,90.87
2023-05-01T04:21:59.101Z,90.87
2023-05-01T04:22:31.768Z,90.87
2023-05-01T04:23:04.445Z,90.77
2023-05-01T04:23:37.139Z,90.66
2023-05-01T04:24:08.207Z,90.56
2023-05-01T04:24:40.886Z,90.35
2023-05-01T04:25:13.541Z,90.35
2023-05-01T04:25:46.224Z,90.45
2023-05-01T04:26:18.889Z,90.45
2023-05-01T04:26:51.580Z,90.56
2023-05-01T04:27:24.235Z,90.56
2023-05-01T04:27:56.895Z,90.45
2023-05-01T04:28:29.554Z,90.35
2023-05-01T04:29:02.230Z,90.35
2023-05-01T04:29:35.056Z,90.35
2023-05-01T04:30:07.718Z,90.20
2023-05-01T04:30:40.388Z,90.10
2023-05-01T04:31:13.119Z,90.00
2023-05-01T04:31:45.819Z,89.89
2023-05-01T04:32:18.474Z,89.69
2023-05-01T04:32:51.181Z,89.58
2023-05-01T04:33:23.880Z,89.48
2023-05-01T04:33:56.527Z,89.37
2023-05-01T04:34:29.216Z,89.23
2023-05-01T04:35:01.883Z,89.33
2023-05-01T04:35:34.548Z,89.33
2023-05-01T04:36:07.234Z,89.33
2023-05-01T04:36:39.913Z,89.12
2023-05-01T04:37:12.611Z,89.02
2023-05-01T04:37:45.236Z,88.81
2023-05-01T04:38:17.916Z,88.71
2023-05-01T04:38:50.554Z,88.50
2023-05-01T04:39:23.221Z,88.46
2023-05-01T04:39:56.406Z,88.46
2023-05-01T04:40:26.986Z,88.46
2023-05-01T04:40:59.680Z,88.25
2023-05-01T04:41:32.356Z,88.04
2023-05-01T04:42:05.038Z,87.84
2023-05-01T04:42:37.713Z,87.63
2023-05-01T04:43:10.414Z,87.52
2023-05-01T04:43:43.059Z,87.42
2023-05-01T04:44:15.713Z,87.27
2023-05-01T04:44:48.492Z,87.27
2023-05-01T04:45:21.118Z,87.27
2023-05-01T04:45:53.833Z,87.27
2023-05-01T04:46:26.539Z,87.07
2023-05-01T04:46:59.269Z,86.96
2023-05-01T04:47:31.980Z,86.86
2023-05-01T04:48:04.745Z,86.76
2023-05-01T04:48:37.444Z,86.65
2023-05-01T04:49:10.122Z,86.65
2023-05-01T04:49:42.792Z,86.51
2023-05-01T04:50:15.478Z,86.30
2023-05-01T04:50:48.122Z,86.19
2023-05-01T04:51:20.788Z,85.99
2023-05-01T04:51:53.443Z,85.88
2023-05-01T04:52:26.137Z,85.88
2023-05-01T04:52:58.801Z,85.88
2023-05-01T04:53:31.499Z,85.74
2023-05-01T04:54:04.140Z,85.64
2023-05-01T04:54:36.807Z,85.43
2023-05-01T04:55:09.479Z,85.22
2023-05-01T04:55:42.158Z,85.12
2023-05-01T04:56:14.829Z,84.91
2023-05-01T04:56:47.498Z,84.81
2023-05-01T04:57:20.203Z,84.70
2023-05-01T04:57:52.887Z,84.70
2023-05-01T04:58:25.562Z,84.29
2023-05-01T04:58:58.235Z,84.15
2023-05-01T04:59:30.902Z,84.05
2023-05-01T05:00:03.596Z,84.15
2023-05-01T05:00:36.253Z,84.05
2023-05-01T05:01:08.966Z,83.84
2023-05-01T05:01:41.766Z,83.94
2023-05-01T05:02:14.456Z,83.63
2023-05-01T05:02:47.145Z,83.53
2023-05-01T05:03:19.962Z,83.63
2023-05-01T05:03:53.038Z,83.63
2023-05-01T05:04:19.239Z,83.48
2023-05-01T05:04:51.904Z,83.48
2023-05-01T05:05:24.579Z,83.38
2023-05-01T05:05:57.349Z,83.28
2023-05-01T05:06:30.069Z,83.28
2023-05-01T05:07:02.782Z,83.07
2023-05-01T05:07:35.471Z,82.97
2023-05-01T05:08:08.130Z,82.86
2023-05-01T05:08:40.803Z,82.86
2023-05-01T05:09:13.501Z,82.76
2023-05-01T05:09:46.171Z,82.65
2023-05-01T05:10:18.840Z,82.65
2023-05-01T05:10:51.550Z,82.76
2023-05-01T05:11:24.222Z,82.72
2023-05-01T05:11:55.291Z,82.72
2023-05-01T05:12:27.962Z,82.51
2023-05-01T05:13:00.634Z,82.51
2023-05-01T05:13:33.316Z,82.51
2023-05-01T05:14:05.984Z,82.51
2023-05-01T05:14:38.696Z,82.82
2023-05-01T05:15:11.357Z,82.62
2023-05-01T05:15:45.494Z,82.51
2023-05-01T05:16:12.656Z,82.51
2023-05-01T05:16:45.362Z,82.41
2023-05-01T05:17:18.058Z,82.31
2023-05-01T05:17:50.792Z,82.06
2023-05-01T05:18:23.578Z,81.96
2023-05-01T05:18:56.265Z,81.96
2023-05-01T05:19:28.917Z,81.65
2023-05-01T05:20:01.575Z,81.44
2023-05-01T05:20:34.257Z,81.54
2023-05-01T05:21:07.651Z,81.44
2023-05-01T05:21:34.321Z,81.34
2023-05-01T05:22:07.015Z,81.23
2023-05-01T05:22:39.663Z,81.02
2023-05-01T05:23:12.361Z,81.13
2023-05-01T05:23:45.007Z,81.23
2023-05-01T05:24:17.671Z,81.23
2023-05-01T05:24:50.338Z,81.13
2023-05-01T05:25:23.022Z,80.88
2023-05-01T05:25:55.724Z,80.88
2023-05-01T05:26:28.398Z,81.20
2023-05-01T05:27:01.029Z,81.09
2023-05-01T05:27:33.697Z,80.78
2023-05-01T05:28:06.362Z,80.57
2023-05-01T05:28:39.039Z,80.47
2023-05-01T05:29:11.706Z,80.26
2023-05-01T05:29:44.411Z,79.71
2023-05-01T05:30:15.521Z,79.30
2023-05-01T05:30:48.191Z,79.19
2023-05-01T05:31:20.980Z,78.99
2023-05-01T05:31:53.702Z,78.78
2023-05-01T05:32:26.555Z,79.09
2023-05-01T05:32:59.306Z,79.60
2023-05-01T05:33:31.949Z,79.71
2023-05-01T05:34:04.601Z,79.71
2023-05-01T05:34:37.268Z,79.50
2023-05-01T05:35:09.943Z,79.40
2023-05-01T05:35:42.639Z,79.47
2023-05-01T05:36:15.309Z,79.36
2023-05-01T05:36:47.993Z,79.57
2023-05-01T05:37:20.660Z,79.98
2023-05-01T05:37:53.317Z,79.57
2023-05-01T05:38:25.987Z,79.16
2023-05-01T05:38:58.653Z,78.43
2023-05-01T05:39:31.318Z,78.53
2023-05-01T05:40:03.988Z,78.70
2023-05-01T05:40:36.673Z,78.70
2023-05-01T05:41:09.349Z,78.50
2023-05-01T05:41:42.034Z,78.19
2023-05-01T05:42:14.681Z,78.08
2023-05-01T05:42:47.357Z,78.08
2023-05-01T05:43:20.013Z,77.98
2023-05-01T05:43:52.702Z,77.67
2023-05-01T05:44:25.347Z,77.43
2023-05-01T05:44:58.010Z,77.12
2023-05-01T05:45:30.689Z,77.01
2023-05-01T05:46:03.385Z,77.22
2023-05-01T05:46:36.059Z,77.33
2023-05-01T05:47:08.841Z,77.12
2023-05-01T05:47:41.571Z,76.70
2023-05-01T05:48:14.252Z,76.50
2023-05-01T05:48:45.303Z,76.29
2023-05-01T05:49:17.977Z,76.39
2023-05-01T05:49:50.660Z,76.29
2023-05-01T05:50:23.333Z,75.57
2023-05-01T05:50:56.028Z,75.57
2023-05-01T05:51:28.676Z,75.63
2023-05-01T05:52:01.348Z,75.43
2023-05-01T05:52:34.014Z,75.43
2023-05-01T05:53:06.688Z,75.63
2023-05-01T05:53:39.388Z,75.74
2023-05-01T05:54:12.031Z,75.74
2023-05-01T05:54:44.707Z,75.63
2023-05-01T05:55:17.362Z,75.63
2023-05-01T05:55:50.049Z,75.53
2023-05-01T05:56:22.723Z,75.63
2023-05-01T05:56:55.432Z,75.84
2023-05-01T05:57:28.082Z,75.29
2023-05-01T05:58:00.745Z,75.19
2023-05-01T05:58:33.410Z,75.49
2023-05-01T05:59:06.057Z,75.81
2023-05-01T05:59:38.723Z,75.60
2023-05-01T06:00:11.405Z,75.29
2023-05-01T06:00:44.097Z,74.98
2023-05-01T06:01:16.745Z,75.09
2023-05-01T06:01:49.432Z,75.09
2023-05-01T06:02:22.314Z,74.95
2023-05-01T06:02:55.215Z,74.84
2023-05-01T06:03:28.082Z,74.63
2023-05-01T06:04:00.826Z,74.84
2023-05-01T06:04:33.483Z,74.63
2023-05-01T06:05:06.200Z,74.12
2023-05-01T06:05:38.920Z,74.02
2023-05-01T06:06:11.664Z,74.19
2023-05-01T06:06:44.398Z,74.40
2023-05-01T06:07:17.106Z,73.88
2023-05-01T06:07:49.773Z,73.68
2023-05-01T06:08:16.324Z,73.16
2023-05-01T06:08:48.992Z,72.92
2023-05-01T06:09:21.665Z,72.40
2023-05-01T06:09:54.424Z,72.09
2023-05-01T06:10:27.164Z,72.09
2023-05-01T06:10:59.849Z,71.99
2023-05-01T06:11:32.506Z,72.30
2023-05-01T06:12:05.179Z,72.47
2023-05-01T06:12:40.887Z,72.67
2023-05-01T06:13:13.742Z,71.75
2023-05-01T06:13:40.777Z,71.55
2023-05-01T06:14:13.448Z,71.55
2023-05-01T06:14:46.113Z,71.61
2023-05-01T06:15:18.828Z,71.20
2023-05-01T06:15:51.574Z,70.68
2023-05-01T06:16:24.348Z,70.58
2023-05-01T06:16:57.027Z,71.00
2023-05-01T06:17:29.733Z,70.65
2023-05-01T06:18:02.591Z,70.45
2023-05-01T06:18:35.278Z,70.14
2023-05-01T06:19:07.972Z,69.73
2023-05-01T06:19:40.632Z,69.59
2023-05-01T06:20:13.325Z,69.38
2023-05-01T06:20:45.997Z,69.79
2023-05-01T06:21:18.659Z,69.90
2023-05-01T06:21:51.343Z,69.66
2023-05-01T06:22:24.010Z,69.66
2023-05-01T06:22:56.671Z,69.25
2023-05-01T06:23:29.361Z,68.60
2023-05-01T06:24:02.039Z,68.60
2023-05-01T06:24:34.759Z,68.19
2023-05-01T06:25:07.454Z,67.47
2023-05-01T06:25:40.141Z,66.61
2023-05-01T06:26:12.809Z,65.80
2023-05-01T06:26:45.487Z,66.31
2023-05-01T06:27:18.156Z,67.33
2023-05-01T06:27:50.824Z,66.89
2023-05-01T06:28:23.507Z,66.28
2023-05-01T06:28:56.181Z,64.94
2023-05-01T06:29:28.837Z,64.73
2023-05-01T06:30:01.502Z,64.84
2023-05-01T06:30:34.171Z,64.91
2023-05-01T06:31:07.083Z,64.60
2023-05-01T06:31:39.773Z,63.98
2023-05-01T06:32:12.482Z,63.68
2023-05-01T06:32:45.154Z,63.85
2023-05-01T06:33:17.812Z,64.26
2023-05-01T06:33:50.480Z,64.37
2023-05-01T06:34:23.158Z,63.85
2023-05-01T06:34:55.843Z,63.62
2023-05-01T06:35:28.523Z,63.00
2023-05-01T06:36:01.208Z,63.31
2023-05-01T06:36:33.872Z,63.07
2023-05-01T06:37:06.534Z,63.39
2023-05-01T06:37:39.205Z,63.18
2023-05-01T06:38:11.863Z,62.12
2023-05-01T06:38:42.958Z,61.92
2023-05-01T06:39:15.642Z,61.48
2023-05-01T06:39:48.296Z,61.27
2023-05-01T06:40:20.962Z,60.76
2023-05-01T06:40:53.636Z,60.25
2023-05-01T06:41:26.322Z,60.86
2023-05-01T06:41:59.002Z,61.15
2023-05-01T06:42:31.671Z,60.22
2023-05-01T06:43:04.352Z,59.30
2023-05-01T06:43:37.030Z,59.30
2023-05-01T06:44:09.714Z,58.79
2023-05-01T06:44:42.371Z,59.50
2023-05-01T06:45:15.057Z,59.61
2023-05-01T06:45:47.761Z,59.20
2023-05-01T06:46:20.486Z,59.48
2023-05-01T06:46:53.183Z,59.27
2023-05-01T06:47:25.920Z,59.27
2023-05-01T06:47:58.607Z,59.38
2023-05-01T06:48:31.263Z,59.89
2023-05-01T06:49:03.972Z,59.55
2023-05-01T06:49:36.618Z,59.04
2023-05-01T06:50:09.294Z,59.76
2023-05-01T06:50:42.004Z,59.22
2023-05-01T06:51:14.662Z,57.58
2023-05-01T06:51:47.322Z,57.58
2023-05-01T06:52:19.994Z,57.38
2023-05-01T06:52:52.655Z,57.99
2023-05-01T06:53:25.322Z,58.37
2023-05-01T06:53:57.985Z,58.48
2023-05-01T06:54:30.653Z,58.37
2023-05-01T06:55:03.325Z,57.63
2023-05-01T06:55:36.097Z,57.63
2023-05-01T06:56:08.754Z,57.73
2023-05-01T06:56:41.416Z,57.29
2023-05-01T06:57:14.103Z,57.70
2023-05-01T06:57:46.749Z,56.68
2023-05-01T06:58:48.462Z,55.05
2023-05-01T06:59:21.122Z,55.33
2023-05-01T06:59:54.146Z,54.21